KENW/ENW METAR and TAF weather

Enter ICAO airport designator
Station Type Date Time Source
KENW METAR 2021/03/05 00:53 UTC NOAA

KENW 050053Z 36005KT 10SM CLR M02/M07 A3037 RMK AO2 SLP296 T10221067


Station Type Date Time Source
KENW Decoded METAR 2021/03/05 00:53 UTC NOAA

KENOSHA REGIONAL AIRPORT, WI, United States (KENW) 42-36N 087-56W 219M
Mar 04, 2021 - 07:53 PM EST / 2021.03.05 0053 UTC
Wind: from the N (360 degrees) at 6 MPH (5 KT):0
Visibility: 10 mile(s):0
Sky conditions: clear
Temperature: 28.0 F (-2.2 C)
Windchill: 21 F (-6 C):1
Dew Point: 19.9 F (-6.7 C)
Relative Humidity: 71%
Pressure (altimeter): 30.37 in. Hg (1028 hPa)
ob: KENW 050053Z 36005KT 10SM CLR M02/M07 A3037 RMK AO2 SLP296 T10221067
cycle: 1

Station Type Date Time Source
KENW TAF 2021/03/04 21:45 UTC NOAA

TAF
AMD KENW 042041Z 0421/0518 04012KT P6SM SCT021
FM042300 02010KT P6SM SCT020
FM050100 03008KT P6SM FEW020
FM050800 01004KT P6SM SKC
FM051400 31006KT P6SM FEW200

Example: see airport list